Grampian Pride — GDDK — position and weather

sailwx.info

Track history (hours):
 
Tides and Currents Weather Stations Pressure Air Temp Water Temp Dewpoint Dewpoint Depression Visibility Wind Speed Wind Dir Waves Ship Positions

Grampian Pride

Last reported at 2014-Jun-11 07:34 UTC. Time now 2014-Jul-24 19:19 UTC.
Position N 57°09' W 002°05'.
Warning: this ship's position is 43 days out of date.

Length 42 m; draft 4.8 m.

Type: SAR. MMSI: 232843000.

Date/timePositionNaut miles runAvg speedWind from/ knotsBaromVisibWave heightAir tempDewpointWater temp
2014-Jun-11 07:34N 57°09' W 002°05'0 0.0
2014-Jun-11 06:30N 57°09' W 002°04'0 0.0
2014-Jun-11 05:31N 57°09' W 002°05'0 0.0
2014-Jun-11 04:31N 57°09' W 002°04'0 0.0
2014-Jun-11 03:25N 57°09' W 002°05'0 0.0
2014-Jun-11 02:34N 57°09' W 002°05'0 0.0
2014-Jun-11 01:31N 57°09' W 002°04'0 0.0
2014-Jun-11 00:33N 57°09' W 002°04'0 0.0
2014-Jun-10 23:31N 57°09' W 002°05'0 0.0
2014-Jun-10 22:31N 57°09' W 002°04'0 0.0
2014-Jun-10 21:31N 57°09' W 002°04'0 0.0
2014-Jun-10 20:31N 57°09' W 002°04'0 0.0
2014-Jun-10 19:34N 57°09' W 002°04'0 0.0
2014-Jun-10 18:25N 57°09' W 002°05'0 0.0
2014-Jun-10 17:33N 57°09' W 002°05'0 0.0
2014-Jun-10 16:31N 57°09' W 002°04'0 0.0
2014-Jun-10 13:13N 57°09' W 002°04'0 0.0
2014-Jun-10 12:31N 57°09' W 002°04'0 0.0
2014-Jun-10 07:34N 57°09' W 002°04'0 0.0
2014-Jun-10 06:28N 57°09' W 002°04'0 0.0
2014-Jun-10 03:31N 57°09' W 002°05'0 0.0
2014-Jun-10 02:34N 57°09' W 002°05'0 0.0
2014-Jun-10 01:22N 57°09' W 002°04'0 0.0
2014-Jun-10 00:30N 57°09' W 002°05'0 0.0
2014-Jun-09 23:30N 57°09' W 002°04'0 0.0
2014-Jun-09 22:28N 57°09' W 002°04'0 0.0
2014-Jun-09 21:30N 57°09' W 002°04'0 0.0
2014-Jun-09 20:24N 57°09' W 002°04'0 0.0
2014-Jun-09 19:22N 57°09' W 002°05'0 0.0
2014-Jun-09 18:33N 57°09' W 002°05'0 0.0
2014-Jun-09 17:33N 57°09' W 002°04'0 0.0
2014-Jun-09 16:33N 57°09' W 002°04'0 0.0
2014-Jun-09 07:26N 57°09' W 002°05'0 0.0
2014-Jun-08 17:28N 57°09' W 002°04'0 0.0
2014-Jun-08 15:27N 57°09' W 002°04'0 0.0
2014-Jun-08 13:15N 57°09' W 002°04'0 0.0
2014-Jun-08 10:18N 57°09' W 002°04'0 0.0
2014-Jun-08 09:33N 57°09' W 002°04'0 0.1
2014-Jun-08 08:33N 57°09' W 002°05'0 0.0
2014-Jun-08 07:10N 57°09' W 002°05'0 0.0
2014-Jun-08 05:10N 57°09' W 002°05'0 0.0
2014-Jun-08 04:21N 57°09' W 002°05'0 0.0
2014-Jun-08 03:33N 57°09' W 002°05'0 0.0
2014-Jun-08 02:32N 57°09' W 002°05'0 0.0
2014-Jun-08 01:33N 57°09' W 002°05'0 0.0
2014-Jun-08 00:33N 57°09' W 002°05'0 0.0
2014-Jun-07 23:32N 57°09' W 002°05'0 0.0
2014-Jun-07 22:33N 57°09' W 002°05'0 0.0
2014-Jun-07 19:17N 57°09' W 002°05'0 0.0
2014-Jun-07 18:33N 57°09' W 002°05'0 0.0
2014-Jun-07 17:31N 57°09' W 002°05'11 3.7
2014-Jun-07 14:29N 57°16' W 001°49'8 9.1
2014-Jun-07 13:33N 57°22' W 001°37'9 9.4
2014-Jun-07 12:33N 57°28' W 001°25'10 9.8
2014-Jun-07 11:34N 57°34' W 001°10'5 0.2
2014-Jun-06 12:10N 57°39' W 001°12'710.8
2014-Jun-06 11:34N 57°34' W 001°21'1110.7
2014-Jun-06 10:34N 57°27' W 001°36'3 3.3
2014-Jun-06 09:33N 57°25' W 001°41'3 2.6
2014-Jun-06 08:34N 57°28' W 001°40'9 8.7
2014-Jun-06 07:34N 57°36' W 001°42'6610.8
2014-Jun-06 01:30N 58°34' W 002°43'1010.6
2014-Jun-06 00:34N 58°39' W 002°58'10 9.8
2014-Jun-05 23:33N 58°43' W 003°16'7 7.4
2014-Jun-05 22:33N 58°42' W 003°30'8 7.6
2014-Jun-05 21:34N 58°42' W 003°45'8 7.5
2014-Jun-05 20:34N 58°41' W 003°59'8 8.3
2014-Jun-05 19:34N 58°42' W 004°15'9 8.2
2014-Jun-05 18:30N 58°42' W 004°32'19 8.9
2014-Jun-05 16:23N 58°40' W 005°08'18 9.2
2014-Jun-05 14:27N 58°37' W 005°42'26 8.9
2014-Jun-05 11:32N 58°31' W 006°30'  
Track history (hours):
 
Tides and Currents Weather Stations Pressure Air Temp Water Temp Dewpoint Dewpoint Depression Visibility Wind Speed Wind Dir Waves Ship Positions

Grampian Pride

Last reported at 2014-Jun-11 07:34 UTC. Time now 2014-Jul-24 19:19 UTC.
Position N 57°09' W 002°05'.
Warning: this ship's position is 43 days out of date.

Length 42 m; draft 4.8 m.

Type: SAR. MMSI: 232843000.

Date/timePositionNaut miles runAvg speedWind from/ knotsBaromVisibWave heightAir tempDewpointWater temp
2014-Jun-11 07:34N 57°09' W 002°05'0 0.0
2014-Jun-11 06:30N 57°09' W 002°04'0 0.0
2014-Jun-11 05:31N 57°09' W 002°05'0 0.0
2014-Jun-11 04:31N 57°09' W 002°04'0 0.0
2014-Jun-11 03:25N 57°09' W 002°05'0 0.0
2014-Jun-11 02:34N 57°09' W 002°05'0 0.0
2014-Jun-11 01:31N 57°09' W 002°04'0 0.0
2014-Jun-11 00:33N 57°09' W 002°04'0 0.0
2014-Jun-10 23:31N 57°09' W 002°05'0 0.0
2014-Jun-10 22:31N 57°09' W 002°04'0 0.0
2014-Jun-10 21:31N 57°09' W 002°04'0 0.0
2014-Jun-10 20:31N 57°09' W 002°04'0 0.0
2014-Jun-10 19:34N 57°09' W 002°04'0 0.0
2014-Jun-10 18:25N 57°09' W 002°05'0 0.0
2014-Jun-10 17:33N 57°09' W 002°05'0 0.0
2014-Jun-10 16:31N 57°09' W 002°04'0 0.0
2014-Jun-10 13:13N 57°09' W 002°04'0 0.0
2014-Jun-10 12:31N 57°09' W 002°04'0 0.0
2014-Jun-10 07:34N 57°09' W 002°04'0 0.0
2014-Jun-10 06:28N 57°09' W 002°04'0 0.0
2014-Jun-10 03:31N 57°09' W 002°05'0 0.0
2014-Jun-10 02:34N 57°09' W 002°05'0 0.0
2014-Jun-10 01:22N 57°09' W 002°04'0 0.0
2014-Jun-10 00:30N 57°09' W 002°05'0 0.0
2014-Jun-09 23:30N 57°09' W 002°04'0 0.0
2014-Jun-09 22:28N 57°09' W 002°04'0 0.0
2014-Jun-09 21:30N 57°09' W 002°04'0 0.0
2014-Jun-09 20:24N 57°09' W 002°04'0 0.0
2014-Jun-09 19:22N 57°09' W 002°05'0 0.0
2014-Jun-09 18:33N 57°09' W 002°05'0 0.0
2014-Jun-09 17:33N 57°09' W 002°04'0 0.0
2014-Jun-09 16:33N 57°09' W 002°04'0 0.0
2014-Jun-09 07:26N 57°09' W 002°05'0 0.0
2014-Jun-08 17:28N 57°09' W 002°04'0 0.0
2014-Jun-08 15:27N 57°09' W 002°04'0 0.0
2014-Jun-08 13:15N 57°09' W 002°04'0 0.0
2014-Jun-08 10:18N 57°09' W 002°04'0 0.0
2014-Jun-08 09:33N 57°09' W 002°04'0 0.1
2014-Jun-08 08:33N 57°09' W 002°05'0 0.0
2014-Jun-08 07:10N 57°09' W 002°05'0 0.0
2014-Jun-08 05:10N 57°09' W 002°05'0 0.0
2014-Jun-08 04:21N 57°09' W 002°05'0 0.0
2014-Jun-08 03:33N 57°09' W 002°05'0 0.0
2014-Jun-08 02:32N 57°09' W 002°05'0 0.0
2014-Jun-08 01:33N 57°09' W 002°05'0 0.0
2014-Jun-08 00:33N 57°09' W 002°05'0 0.0
2014-Jun-07 23:32N 57°09' W 002°05'0 0.0
2014-Jun-07 22:33N 57°09' W 002°05'0 0.0
2014-Jun-07 19:17N 57°09' W 002°05'0 0.0
2014-Jun-07 18:33N 57°09' W 002°05'0 0.0
2014-Jun-07 17:31N 57°09' W 002°05'11 3.7
2014-Jun-07 14:29N 57°16' W 001°49'8 9.1
2014-Jun-07 13:33N 57°22' W 001°37'9 9.4
2014-Jun-07 12:33N 57°28' W 001°25'10 9.8
2014-Jun-07 11:34N 57°34' W 001°10'5 0.2
2014-Jun-06 12:10N 57°39' W 001°12'710.8
2014-Jun-06 11:34N 57°34' W 001°21'1110.7
2014-Jun-06 10:34N 57°27' W 001°36'3 3.3
2014-Jun-06 09:33N 57°25' W 001°41'3 2.6
2014-Jun-06 08:34N 57°28' W 001°40'9 8.7
2014-Jun-06 07:34N 57°36' W 001°42'6610.8
2014-Jun-06 01:30N 58°34' W 002°43'1010.6
2014-Jun-06 00:34N 58°39' W 002°58'10 9.8
2014-Jun-05 23:33N 58°43' W 003°16'7 7.4
2014-Jun-05 22:33N 58°42' W 003°30'8 7.6
2014-Jun-05 21:34N 58°42' W 003°45'8 7.5
2014-Jun-05 20:34N 58°41' W 003°59'8 8.3
2014-Jun-05 19:34N 58°42' W 004°15'9 8.2
2014-Jun-05 18:30N 58°42' W 004°32'19 8.9
2014-Jun-05 16:23N 58°40' W 005°08'18 9.2
2014-Jun-05 14:27N 58°37' W 005°42'26 8.9
2014-Jun-05 11:32N 58°31' W 006°30'  

Dump ship's entire track history